Time;durP1;ratioP1;P1;durP2;ratioP2;P2;SDS_P1;SDS_P2;PMS_P1;PMS_P2;Temp;Humidity;BMP_temperature;BMP_pressure;BME280_temperature;BME280_humidity;BME280_pressure;Samples;Min_cycle;Max_cycle;Signal;HPM_P1;HPM_P2
2022/05/15 00:03:25;;;;;;;13.60;8.50;;;;;;;16.39;49.45;99248.31;233036;1223;139042;-60
2022/05/15 00:08:31;;;;;;;16.60;9.20;;;;;;;16.27;49.57;99247.81;232879;1223;139941;-60
2022/05/15 00:13:36;;;;;;;16.40;9.00;;;;;;;16.22;50.13;99245.94;232774;1224;139582;-59
2022/05/15 00:18:39;;;;;;;19.40;8.60;;;;;;;16.20;50.25;99248.64;232815;1223;138783;-59
2022/05/15 00:23:42;;;;;;;14.00;8.50;;;;;;;16.19;50.46;99252.14;232706;1224;138450;-60
2022/05/15 00:28:46;;;;;;;14.70;7.90;;;;;;;16.15;50.48;99252.41;232737;1224;139087;-60
2022/05/15 00:33:50;;;;;;;11.90;6.00;;;;;;;16.12;50.49;99252.69;232534;1223;139177;-60
2022/05/15 00:38:58;;;;;;;19.00;7.80;;;;;;;16.17;50.35;99251.02;232542;1223;139233;-60
2022/05/15 00:44:01;;;;;;;13.40;7.80;;;;;;;16.18;50.89;99242.52;232841;1224;138863;-60
2022/05/15 00:49:12;;;;;;;11.40;8.20;;;;;;;16.22;50.90;99245.45;232564;1223;139072;-59
2022/05/15 00:54:19;;;;;;;14.70;8.30;;;;;;;16.20;51.06;99247.02;232705;1224;139070;-60
2022/05/15 00:59:27;;;;;;;13.30;7.90;;;;;;;16.23;51.12;99246.96;232665;1223;139313;-59
2022/05/15 01:04:31;;;;;;;16.80;8.80;;;;;;;16.21;51.17;99244.94;232699;1224;139282;-59
2022/05/15 01:09:35;;;;;;;14.70;7.60;;;;;;;16.21;51.41;99249.59;232496;1224;140244;-60
2022/05/15 01:14:44;;;;;;;18.90;7.20;;;;;;;16.20;51.70;99251.33;232471;1224;139147;-60
2022/05/15 01:19:47;;;;;;;15.20;7.10;;;;;;;16.23;50.93;99256.24;232493;1223;139993;-60
2022/05/15 01:24:51;;;;;;;10.60;5.70;;;;;;;16.26;50.72;99253.67;232442;1222;139670;-60
2022/05/15 01:29:54;;;;;;;10.70;6.10;;;;;;;16.29;50.20;99253.23;231673;1223;138997;-59
2022/05/15 01:34:58;;;;;;;11.80;5.80;;;;;;;16.31;49.99;99256.50;232679;1223;139769;-60
2022/05/15 01:40:04;;;;;;;12.50;6.50;;;;;;;16.34;49.72;99255.37;232214;1224;139503;-62
2022/05/15 01:45:08;;;;;;;12.70;5.90;;;;;;;16.32;49.58;99255.31;232205;1223;139181;-62
2022/05/15 01:50:13;;;;;;;12.80;5.80;;;;;;;16.32;49.91;99256.23;232541;1224;139209;-62
2022/05/15 01:55:17;;;;;;;15.50;5.50;;;;;;;16.34;49.61;99259.64;232281;1223;138601;-60
2022/05/15 02:00:24;;;;;;;11.40;5.20;;;;;;;16.32;49.26;99257.33;232656;1223;139727;-60
2022/05/15 02:05:27;;;;;;;11.10;5.50;;;;;;;16.29;49.02;99252.18;232829;1223;139066;-60
2022/05/15 02:10:31;;;;;;;10.50;5.10;;;;;;;16.29;48.95;99257.52;232200;1222;139755;-60
2022/05/15 02:15:34;;;;;;;13.60;5.20;;;;;;;16.27;48.64;99253.94;232636;1223;138627;-60
2022/05/15 02:20:38;;;;;;;12.10;5.90;;;;;;;16.29;48.61;99257.21;232340;1222;139656;-60
2022/05/15 02:25:41;;;;;;;11.10;5.50;;;;;;;16.24;48.50;99256.76;231788;1223;139367;-59
2022/05/15 02:30:48;;;;;;;9.40;5.50;;;;;;;16.19;48.56;99251.91;232739;1222;139461;-60
2022/05/15 02:35:52;;;;;;;15.90;6.00;;;;;;;16.16;48.70;99258.23;232735;1223;138860;-60
2022/05/15 02:40:55;;;;;;;15.40;6.80;;;;;;;16.17;48.86;99258.38;232977;1221;138722;-58
2022/05/15 02:45:59;;;;;;;11.00;6.80;;;;;;;16.14;48.84;99263.98;232820;1224;138980;-60
2022/05/15 02:51:03;;;;;;;13.20;6.80;;;;;;;16.12;48.81;99269.70;232803;1221;139516;-60
2022/05/15 02:56:10;;;;;;;13.90;6.50;;;;;;;16.07;48.78;99265.44;232656;1223;139421;-63
2022/05/15 03:01:14;;;;;;;13.30;6.60;;;;;;;16.06;48.82;99267.81;232749;1222;140038;-59
2022/05/15 03:06:18;;;;;;;14.60;8.00;;;;;;;16.04;49.01;99263.36;232517;1223;138758;-60
2022/05/15 03:11:21;;;;;;;16.10;8.10;;;;;;;16.03;49.16;99264.29;232675;1224;141171;-60
2022/05/15 03:16:28;;;;;;;17.30;9.20;;;;;;;16.02;49.12;99273.93;232038;1223;138834;-60
2022/05/15 03:21:31;;;;;;;16.00;9.10;;;;;;;16.00;49.52;99270.63;232511;1222;138969;-64
2022/05/15 03:26:45;;;;;;;18.00;9.60;;;;;;;15.98;49.57;99270.48;232414;1223;139107;-59
2022/05/15 03:31:48;;;;;;;15.80;8.90;;;;;;;15.95;49.55;99275.20;232504;1223;139043;-58
2022/05/15 03:36:52;;;;;;;14.60;9.60;;;;;;;15.94;49.72;99284.08;232723;1223;139745;-59
2022/05/15 03:41:56;;;;;;;18.20;9.60;;;;;;;15.91;49.88;99285.70;232019;1223;138889;-60
2022/05/15 03:46:59;;;;;;;15.50;9.70;;;;;;;15.86;50.11;99283.05;232682;1223;139068;-60
2022/05/15 03:52:03;;;;;;;16.00;9.40;;;;;;;15.90;50.17;99288.48;232470;1223;138831;-58
2022/05/15 03:57:07;;;;;;;15.90;9.60;;;;;;;15.96;50.31;99291.76;231394;1224;141629;-59
2022/05/15 04:02:10;;;;;;;17.30;9.10;;;;;;;15.99;50.26;99289.88;232340;1224;139366;-59
2022/05/15 04:07:14;;;;;;;16.30;9.80;;;;;;;16.01;50.08;99288.66;232759;1223;141625;-59
2022/05/15 04:12:17;;;;;;;15.90;9.50;;;;;;;16.02;50.25;99295.16;232685;1223;139951;-59
2022/05/15 04:17:20;;;;;;;16.30;8.60;;;;;;;16.03;50.55;99299.92;232783;1223;139039;-60
2022/05/15 04:22:24;;;;;;;16.40;9.10;;;;;;;16.10;50.43;99301.75;232641;1223;139373;-60
2022/05/15 04:27:27;;;;;;;17.40;8.60;;;;;;;16.11;50.57;99302.15;232490;1223;138890;-60
2022/05/15 04:32:30;;;;;;;15.90;8.60;;;;;;;16.16;50.39;99313.05;232605;1223;139772;-60
2022/05/15 04:37:33;;;;;;;16.20;9.10;;;;;;;16.19;50.48;99311.91;231661;1222;138553;-59
2022/05/15 04:42:37;;;;;;;17.60;9.20;;;;;;;16.19;50.64;99317.23;232328;1223;139420;-58
2022/05/15 04:47:40;;;;;;;20.20;9.30;;;;;;;16.21;50.56;99312.64;232834;1223;139614;-58
2022/05/15 04:52:43;;;;;;;16.20;9.80;;;;;;;16.26;50.51;99316.88;232483;1223;140759;-59
2022/05/15 04:57:46;;;;;;;16.70;10.10;;;;;;;16.28;50.69;99316.36;232524;1223;139439;-60
2022/05/15 05:02:49;;;;;;;19.40;9.50;;;;;;;16.37;50.37;99325.33;232688;1221;139794;-61
2022/05/15 05:07:52;;;;;;;16.00;8.80;;;;;;;16.45;50.39;99327.02;232527;1223;139840;-60
2022/05/15 05:12:55;;;;;;;15.30;9.00;;;;;;;16.50;50.21;99335.67;232671;1222;139279;-60
2022/05/15 05:17:59;;;;;;;15.60;9.00;;;;;;;16.59;50.26;99335.16;232621;1223;139293;-60
2022/05/15 05:23:02;;;;;;;18.30;9.00;;;;;;;16.68;49.97;99332.92;232459;1223;139372;-63
2022/05/15 05:28:05;;;;;;;16.20;8.70;;;;;;;16.75;49.91;99335.45;231819;1223;139823;-64
2022/05/15 05:33:09;;;;;;;19.60;10.00;;;;;;;16.84;49.76;99343.86;232339;1223;139051;-63
2022/05/15 05:38:12;;;;;;;20.90;9.80;;;;;;;16.90;49.64;99351.91;232494;1223;139109;-63
2022/05/15 05:43:16;;;;;;;17.70;9.00;;;;;;;16.96;49.73;99346.08;232265;1223;139720;-60
2022/05/15 05:48:19;;;;;;;18.20;9.50;;;;;;;17.03;49.64;99355.30;232535;1223;139369;-60
2022/05/15 05:53:22;;;;;;;21.80;9.20;;;;;;;17.07;49.54;99359.50;232327;1222;138904;-60
2022/05/15 05:58:25;;;;;;;18.60;9.60;;;;;;;17.13;49.67;99353.98;232953;1221;139450;-59
2022/05/15 06:08:49;;;;;;;14.70;8.60;;;;;;;17.36;49.23;99365.10;232622;1223;139580;-59
2022/05/15 06:13:52;;;;;;;15.60;7.70;;;;;;;17.46;49.19;99360.86;232858;1222;138937;-62
2022/05/15 06:18:55;;;;;;;15.90;6.80;;;;;;;17.62;49.05;99363.77;232765;1222;139352;-62
2022/05/15 06:23:58;;;;;;;16.40;6.50;;;;;;;17.76;48.84;99367.43;232562;1223;138885;-62
2022/05/15 06:29:02;;;;;;;44.00;35.20;;;;;;;17.79;48.39;99372.06;232123;1223;138618;-63
2022/05/15 06:34:05;;;;;;;16.20;8.00;;;;;;;17.88;48.28;99372.91;232932;1222;139220;-61
2022/05/15 06:39:09;;;;;;;14.30;6.10;;;;;;;17.97;48.38;99369.38;232006;1222;138721;-61
2022/05/15 06:44:12;;;;;;;14.60;6.10;;;;;;;18.09;48.40;99371.98;232713;1222;139527;-63
2022/05/15 06:49:15;;;;;;;11.40;4.70;;;;;;;18.17;48.27;99371.77;232687;1222;139943;-63
2022/05/15 06:54:18;;;;;;;98.60;66.60;;;;;;;18.32;47.86;99377.27;232731;1222;139079;-62
2022/05/15 06:59:21;;;;;;;119.00;104.50;;;;;;;18.50;47.68;99379.35;232953;1222;139664;-62
2022/05/15 07:04:24;;;;;;;14.30;7.50;;;;;;;18.65;47.05;99369.46;232994;1222;139346;-62
2022/05/15 07:09:27;;;;;;;13.10;6.20;;;;;;;18.72;46.71;99372.54;232610;1222;140470;-63
2022/05/15 07:14:30;;;;;;;10.30;4.00;;;;;;;18.78;46.50;99372.89;232668;1222;139047;-62
2022/05/15 07:19:33;;;;;;;12.70;3.90;;;;;;;18.83;46.46;99374.15;232931;1222;138894;-62
2022/05/15 07:24:39;;;;;;;10.70;3.40;;;;;;;18.89;46.28;99377.19;232849;1222;139975;-62
2022/05/15 07:29:42;;;;;;;10.00;3.30;;;;;;;18.95;45.88;99374.34;232986;1222;138724;-62
2022/05/15 07:34:45;;;;;;;8.10;2.90;;;;;;;19.05;46.01;99380.77;232392;1222;138752;-62
2022/05/15 07:39:48;;;;;;;8.80;4.20;;;;;;;19.11;45.64;99384.19;232788;1221;139255;-61
2022/05/15 07:44:54;;;;;;;13.80;3.90;;;;;;;19.20;45.63;99376.17;232528;1222;138713;-63
2022/05/15 07:49:58;;;;;;;12.40;3.70;;;;;;;19.35;45.20;99382.14;232646;1223;139650;-63
2022/05/15 07:55:01;;;;;;;9.60;3.30;;;;;;;19.41;45.08;99376.54;232824;1223;140993;-64
2022/05/15 08:00:08;;;;;;;9.50;3.40;;;;;;;19.51;44.85;99369.11;232945;1222;138606;-62
2022/05/15 08:10:46;;;;;;;14.20;3.90;;;;;;;19.63;44.78;99375.05;232632;1222;138628;-61
2022/05/15 08:15:49;;;;;;;12.40;3.30;;;;;;;19.68;44.38;99374.84;232514;1222;139017;-63
2022/05/15 08:26:15;;;;;;;11.50;3.00;;;;;;;19.72;43.34;99376.69;232678;1222;139499;-62
2022/05/15 08:31:20;;;;;;;12.20;2.60;;;;;;;19.75;42.93;99374.44;232925;1222;139350;-62
2022/05/15 08:36:23;;;;;;;9.30;2.90;;;;;;;19.85;43.00;99375.33;232828;1222;138984;-63
2022/05/15 08:41:59;;;;;;;9.10;3.10;;;;;;;19.88;42.72;99386.79;232124;1221;138706;-62
2022/05/15 08:47:14;;;;;;;9.90;3.20;;;;;;;19.84;42.54;99391.82;232244;1222;138910;-62
2022/05/15 08:52:32;;;;;;;10.30;2.70;;;;;;;19.80;41.81;99381.14;232805;1221;139325;-62
2022/05/15 08:57:40;;;;;;;11.10;3.40;;;;;;;19.86;41.83;99375.75;232907;1222;138848;-62
2022/05/15 09:02:44;;;;;;;9.40;3.30;;;;;;;19.83;41.56;99389.17;231784;1222;139064;-61
2022/05/15 09:08:05;;;;;;;8.80;3.60;;;;;;;19.85;41.50;99389.52;232705;1222;139262;-61
2022/05/15 09:13:24;;;;;;;10.30;3.00;;;;;;;20.01;41.33;99385.89;232613;1223;138497;-61
2022/05/15 09:18:29;;;;;;;12.90;3.20;;;;;;;20.23;41.36;99385.77;232878;1222;139908;-61
2022/05/15 09:23:46;;;;;;;14.90;3.90;;;;;;;20.41;40.93;99381.66;233116;1222;138960;-62
2022/05/15 09:29:01;;;;;;;11.40;3.00;;;;;;;20.61;40.59;99384.25;232476;1222;140232;-60
2022/05/15 09:34:09;;;;;;;7.70;2.80;;;;;;;20.76;40.27;99385.24;231601;1222;138797;-61
2022/05/15 09:39:15;;;;;;;7.40;2.50;;;;;;;20.76;40.09;99386.55;232900;1222;138679;-62
2022/05/15 09:44:30;;;;;;;30.30;20.50;;;;;;;20.70;40.18;99388.60;232893;1222;139100;-61
2022/05/15 09:49:34;;;;;;;11.40;3.20;;;;;;;20.82;40.00;99390.59;232604;1222;139086;-59
2022/05/15 09:54:38;;;;;;;11.00;2.60;;;;;;;20.82;39.75;99385.04;232750;1222;139128;-61
2022/05/15 09:59:43;;;;;;;8.10;2.80;;;;;;;20.98;39.53;99387.15;232971;1221;138955;-60
2022/05/15 10:04:49;;;;;;;14.10;3.10;;;;;;;21.09;39.33;99390.86;231959;1223;138813;-60
2022/05/15 10:09:52;;;;;;;9.10;2.80;;;;;;;21.17;38.91;99394.30;232777;1222;138904;-61
2022/05/15 10:14:59;;;;;;;11.90;2.80;;;;;;;21.32;38.63;99389.75;232696;1222;138880;-62
2022/05/15 10:20:08;;;;;;;8.70;2.70;;;;;;;21.57;38.65;99387.42;231966;1222;138783;-62
2022/05/15 10:25:18;;;;;;;29.50;19.80;;;;;;;21.72;38.39;99378.70;232883;1222;139439;-62
2022/05/15 10:30:30;;;;;;;9.20;3.30;;;;;;;21.71;38.38;99384.95;232949;1222;139691;-62
2022/05/15 10:35:47;;;;;;;8.80;3.20;;;;;;;21.79;37.90;99377.52;232983;1222;138820;-61
2022/05/15 10:40:55;;;;;;;10.10;2.90;;;;;;;21.96;37.59;99379.06;232439;1222;138727;-62
2022/05/15 10:46:13;;;;;;;7.90;2.30;;;;;;;22.13;37.36;99377.25;232725;1222;138466;-62
2022/05/15 10:51:35;;;;;;;6.90;2.30;;;;;;;22.16;37.01;99379.91;232750;1222;139222;-63
2022/05/15 11:02:40;;;;;;;9.30;3.50;;;;;;;22.51;36.89;99370.02;232778;1224;139295;-61
2022/05/15 11:08:08;;;;;;;6.80;3.30;;;;;;;22.69;36.44;99366.84;232696;1222;139186;-62
2022/05/15 11:13:25;;;;;;;7.80;2.80;;;;;;;22.65;36.10;99377.04;232654;1223;139643;-61
2022/05/15 11:18:59;;;;;;;43.00;32.60;;;;;;;22.61;35.96;99364.26;231912;1224;138567;-64
2022/05/15 11:24:43;;;;;;;23.60;15.10;;;;;;;22.82;35.67;99356.69;231986;1223;139096;-60
2022/05/15 11:29:52;;;;;;;6.20;2.50;;;;;;;22.95;35.44;99352.35;232675;1223;139205;-62
2022/05/15 11:35:17;;;;;;;8.80;2.90;;;;;;;23.17;35.35;99350.34;232782;1222;138406;-62
2022/05/15 11:40:47;;;;;;;17.00;6.00;;;;;;;23.42;35.58;99344.07;232381;1223;138413;-63
2022/05/15 11:45:51;;;;;;;31.40;25.20;;;;;;;23.47;35.05;99344.55;232764;1222;139530;-62
2022/05/15 11:50:57;;;;;;;5.10;2.40;;;;;;;23.30;34.22;99349.20;232768;1222;138997;-63
2022/05/15 11:56:21;;;;;;;9.40;3.10;;;;;;;23.19;33.95;99342.51;232732;1222;139629;-63
2022/05/15 12:01:38;;;;;;;6.80;1.70;;;;;;;23.31;33.88;99335.11;232436;1223;138521;-62
2022/05/15 12:06:55;;;;;;;14.00;10.00;;;;;;;23.44;33.23;99340.95;232814;1222;138986;-63
2022/05/15 12:12:20;;;;;;;12.60;3.80;;;;;;;23.54;33.20;99337.89;232908;1222;139842;-62
2022/05/15 12:17:26;;;;;;;6.50;2.20;;;;;;;23.49;33.24;99330.59;232631;1223;139237;-61
2022/05/15 12:22:37;;;;;;;6.00;2.90;;;;;;;23.64;33.15;99331.13;232486;1223;139028;-61
2022/05/15 12:33:40;;;;;;;6.50;1.70;;;;;;;24.07;32.96;99321.91;232399;1223;138714;-62
2022/05/15 12:38:51;;;;;;;6.50;2.00;;;;;;;24.04;32.53;99322.77;232771;1222;138390;-63
2022/05/15 12:43:55;;;;;;;5.20;1.90;;;;;;;23.95;33.00;99306.95;232698;1222;139218;-62
2022/05/15 12:48:59;;;;;;;5.90;1.70;;;;;;;24.04;32.64;99306.63;232707;1222;140562;-62
2022/05/15 12:54:23;;;;;;;4.40;1.80;;;;;;;24.31;32.22;99304.15;232698;1222;139965;-63
2022/05/15 12:59:27;;;;;;;4.90;1.70;;;;;;;24.44;31.76;99291.20;232748;1224;139862;-62
2022/05/15 13:04:31;;;;;;;5.40;1.70;;;;;;;24.40;31.48;99299.99;232555;1222;139614;-61
2022/05/15 13:09:35;;;;;;;32.80;28.20;;;;;;;24.47;31.78;99295.42;231699;1224;138301;-60
2022/05/15 13:14:46;;;;;;;4.30;2.40;;;;;;;24.41;31.41;99296.34;232586;1224;141550;-59
2022/05/15 13:19:52;;;;;;;9.60;6.10;;;;;;;24.42;31.27;99289.96;232487;1224;139476;-60
2022/05/15 13:25:08;;;;;;;7.60;5.10;;;;;;;24.70;31.71;99285.26;232451;1223;139004;-61
2022/05/15 13:30:15;;;;;;;8.60;2.30;;;;;;;24.93;31.21;99276.42;232347;1224;139422;-62
2022/05/15 13:35:20;;;;;;;5.70;1.80;;;;;;;25.30;30.59;99279.28;232652;1223;139399;-62
2022/05/15 13:46:23;;;;;;;6.80;1.90;;;;;;;25.38;29.51;99275.10;232188;1223;139218;-63
2022/05/15 13:51:47;;;;;;;3.60;1.90;;;;;;;25.44;29.66;99269.86;232454;1223;140341;-61
2022/05/15 13:56:56;;;;;;;163.00;117.90;;;;;;;25.59;29.75;99271.10;232102;1223;138996;-60
2022/05/15 14:02:09;;;;;;;8.00;3.50;;;;;;;25.69;29.34;99267.98;232550;1223;139335;-61
2022/05/15 14:07:28;;;;;;;4.40;1.40;;;;;;;25.78;29.03;99262.10;232585;1224;138803;-63
2022/05/15 14:12:48;;;;;;;6.20;1.60;;;;;;;25.91;28.89;99259.90;232735;1224;139783;-63
2022/05/15 14:17:54;;;;;;;4.60;2.00;;;;;;;25.99;28.42;99259.77;232758;1222;139090;-62
2022/05/15 14:22:58;;;;;;;4.80;1.80;;;;;;;25.95;28.28;99250.33;232492;1224;139025;-65
2022/05/15 14:28:02;;;;;;;8.00;4.00;;;;;;;25.87;27.80;99245.84;232678;1223;138897;-63
2022/05/15 14:33:07;;;;;;;4.90;1.70;;;;;;;25.70;28.05;99242.46;232400;1224;139122;-63
2022/05/15 14:38:10;;;;;;;;;;;;;;;25.54;27.99;99237.09;232349;1223;138933;-62
2022/05/15 14:43:18;;;;;;;5.40;1.80;;;;;;;25.37;27.84;99240.08;232742;1224;125913;-63
2022/05/15 14:48:25;;;;;;;3.60;1.60;;;;;;;25.13;27.67;99239.88;232581;1223;139346;-62
2022/05/15 14:53:34;;;;;;;5.50;1.50;;;;;;;24.88;27.79;99236.16;232803;1223;140813;-64
2022/05/15 14:58:48;;;;;;;4.70;1.90;;;;;;;24.65;27.89;99238.70;232412;1224;141306;-62
2022/05/15 15:03:51;;;;;;;5.10;1.50;;;;;;;24.39;28.34;99229.40;232588;1223;138996;-64
2022/05/15 15:08:54;;;;;;;6.90;1.30;;;;;;;24.21;28.66;99226.09;232529;1223;140391;-63
2022/05/15 15:14:07;;;;;;;3.10;1.50;;;;;;;24.12;28.93;99227.98;232398;1223;139161;-65
2022/05/15 15:19:13;;;;;;;3.90;1.40;;;;;;;23.94;29.21;99224.63;232575;1223;141792;-63
2022/05/15 15:24:17;;;;;;;4.50;1.60;;;;;;;23.70;28.81;99223.95;232511;1223;138698;-64
2022/05/15 15:29:21;;;;;;;5.40;1.40;;;;;;;23.68;28.56;99228.59;232644;1223;139011;-64
2022/05/15 15:34:24;;;;;;;3.90;1.40;;;;;;;23.64;28.50;99223.71;232232;1224;139680;-64
2022/05/15 15:39:27;;;;;;;4.60;1.60;;;;;;;23.63;28.57;99225.21;232338;1222;139870;-64
2022/05/15 15:44:30;;;;;;;35.40;22.40;;;;;;;23.61;28.29;99221.89;232407;1223;138936;-64
2022/05/15 15:49:33;;;;;;;4.70;2.90;;;;;;;23.52;28.08;99221.36;232550;1223;139393;-63
2022/05/15 15:54:37;;;;;;;3.20;1.30;;;;;;;23.38;27.95;99214.26;232784;1222;139412;-64
2022/05/15 15:59:39;;;;;;;4.80;1.10;;;;;;;23.25;27.91;99217.92;232844;1223;139132;-64
2022/05/15 16:04:44;;;;;;;4.90;2.20;;;;;;;23.15;28.02;99220.31;233323;1222;139160;-64
2022/05/15 16:09:47;;;;;;;9.90;3.90;;;;;;;23.14;28.30;99217.73;232732;1222;139674;-63
2022/05/15 16:14:50;;;;;;;5.40;4.10;;;;;;;23.08;28.75;99220.04;232786;1223;139894;-63
2022/05/15 16:19:53;;;;;;;3.50;1.20;;;;;;;23.02;28.38;99221.03;232379;1223;140026;-64
2022/05/15 16:25:00;;;;;;;3.70;1.30;;;;;;;22.93;28.08;99218.55;232407;1223;140065;-63
2022/05/15 16:30:08;;;;;;;10.50;8.10;;;;;;;22.94;28.11;99227.35;232425;1223;139520;-64
2022/05/15 16:35:11;;;;;;;4.00;1.40;;;;;;;22.90;28.45;99218.63;232740;1222;139693;-64
2022/05/15 16:40:15;;;;;;;4.40;1.40;;;;;;;22.87;28.70;99226.90;232824;1223;139487;-64
2022/05/15 16:45:21;;;;;;;4.10;1.80;;;;;;;22.82;29.06;99223.77;232343;1223;139389;-62
2022/05/15 16:50:26;;;;;;;4.40;1.30;;;;;;;22.81;29.04;99223.48;232714;1222;139882;-63
2022/05/15 16:55:36;;;;;;;43.20;38.40;;;;;;;22.85;28.88;99226.86;232634;1222;139477;-62
2022/05/15 17:00:42;;;;;;;6.90;4.60;;;;;;;22.85;28.80;99234.48;232677;1222;139833;-63
2022/05/15 17:05:46;;;;;;;4.10;1.50;;;;;;;22.77;29.31;99227.20;232794;1223;140010;-63
2022/05/15 17:10:49;;;;;;;7.20;1.10;;;;;;;22.65;29.46;99229.80;232637;1223;139669;-63
2022/05/15 17:15:52;;;;;;;4.30;1.00;;;;;;;22.58;29.51;99236.95;232498;1223;140152;-64
2022/05/15 17:20:55;;;;;;;6.50;5.00;;;;;;;22.52;29.85;99239.05;232392;1221;138967;-65
2022/05/15 17:26:00;;;;;;;9.70;7.20;;;;;;;22.46;30.10;99230.77;232600;1223;138967;-63
2022/05/15 17:36:25;;;;;;;4.70;2.20;;;;;;;22.38;30.31;99242.63;232533;1223;138733;-63
2022/05/15 17:41:28;;;;;;;2.80;1.40;;;;;;;22.35;30.44;99247.34;232696;1223;138973;-61
2022/05/15 17:46:31;;;;;;;4.20;1.40;;;;;;;22.30;30.75;99250.79;232617;1223;139062;-62
2022/05/15 17:51:34;;;;;;;2.90;1.40;;;;;;;22.23;30.61;99250.60;232605;1223;141382;-61
2022/05/15 17:56:38;;;;;;;3.30;1.40;;;;;;;22.08;30.56;99246.96;232592;1223;140836;-63
2022/05/15 18:01:44;;;;;;;6.70;1.40;;;;;;;21.93;30.57;99259.19;232575;1223;139471;-62
2022/05/15 18:06:47;;;;;;;4.40;1.40;;;;;;;21.76;30.89;99266.25;232436;1224;138910;-61
2022/05/15 18:11:51;;;;;;;271.10;210.30;;;;;;;21.61;31.12;99273.04;232529;1223;139375;-64
2022/05/15 18:16:55;;;;;;;16.40;11.60;;;;;;;21.55;31.52;99273.74;232679;1223;139665;-62
2022/05/15 18:21:58;;;;;;;10.20;2.40;;;;;;;21.45;31.66;99283.56;232518;1222;139351;-63
2022/05/15 18:27:01;;;;;;;4.50;1.90;;;;;;;21.31;31.69;99282.81;232739;1223;139392;-63
2022/05/15 18:32:04;;;;;;;190.80;165.20;;;;;;;21.21;31.93;99291.38;232430;1223;139100;-63
2022/05/15 18:37:07;;;;;;;15.50;9.00;;;;;;;21.16;32.57;99291.16;232663;1221;140498;-62
2022/05/15 18:42:14;;;;;;;5.90;2.70;;;;;;;21.10;32.31;99300.34;232546;1222;139303;-63
2022/05/15 18:47:17;;;;;;;4.90;2.10;;;;;;;20.90;32.57;99303.95;232713;1223;139517;-63
2022/05/15 18:57:42;;;;;;;5.90;1.70;;;;;;;20.50;32.84;99314.79;232695;1222;140025;-63
2022/05/15 19:02:45;;;;;;;6.70;2.00;;;;;;;20.34;33.02;99313.61;232599;1222;140286;-62
2022/05/15 19:07:48;;;;;;;4.50;2.00;;;;;;;20.21;33.33;99326.96;232052;1222;139372;-63
2022/05/15 19:12:57;;;;;;;6.80;1.90;;;;;;;20.11;33.53;99329.13;232774;1222;140583;-63
2022/05/15 19:18:00;;;;;;;215.50;159.90;;;;;;;20.00;33.96;99336.39;232760;1223;138987;-63
2022/05/15 19:23:10;;;;;;;9.30;6.90;;;;;;;19.93;34.28;99335.67;232566;1223;139537;-61
2022/05/15 19:28:13;;;;;;;6.10;2.20;;;;;;;19.77;34.51;99340.92;232015;1222;139445;-62
2022/05/15 19:33:16;;;;;;;8.50;2.20;;;;;;;19.57;34.46;99342.64;232564;1221;139088;-61
2022/05/15 19:38:19;;;;;;;5.50;2.10;;;;;;;19.38;34.94;99349.32;232267;1223;138810;-59
2022/05/15 19:43:23;;;;;;;5.50;2.60;;;;;;;19.20;35.22;99347.37;232537;1223;139430;-61
2022/05/15 19:48:32;;;;;;;6.80;3.10;;;;;;;19.05;35.47;99346.61;232592;1223;139036;-62
2022/05/15 19:53:39;;;;;;;6.70;2.10;;;;;;;18.90;35.88;99351.80;232688;1223;138706;-61
2022/05/15 19:58:42;;;;;;;6.00;2.40;;;;;;;18.76;36.24;99352.52;232615;1223;139054;-59
2022/05/15 20:03:45;;;;;;;7.70;2.70;;;;;;;18.61;36.58;99354.73;231902;1222;139005;-60
2022/05/15 20:14:11;;;;;;;5.20;2.40;;;;;;;18.34;37.24;99360.44;231616;1223;140183;-60
2022/05/15 20:19:15;;;;;;;7.80;2.80;;;;;;;18.21;37.59;99363.59;232000;1223;138839;-59
2022/05/15 20:24:18;;;;;;;8.50;3.30;;;;;;;18.06;38.04;99366.66;232581;1223;139407;-61
2022/05/15 20:29:22;;;;;;;11.30;4.10;;;;;;;17.94;38.59;99368.79;232724;1223;140705;-59
2022/05/15 20:34:28;;;;;;;12.50;3.90;;;;;;;17.81;38.96;99368.64;232669;1223;138926;-60
2022/05/15 20:39:32;;;;;;;13.80;3.90;;;;;;;17.67;39.46;99367.45;232576;1223;139197;-60
2022/05/15 20:44:35;;;;;;;7.20;3.80;;;;;;;17.57;39.95;99373.39;232606;1222;139227;-60
2022/05/15 20:49:38;;;;;;;11.00;3.90;;;;;;;17.47;40.26;99380.31;232630;1222;138620;-62
2022/05/15 20:54:41;;;;;;;10.00;3.50;;;;;;;17.37;40.53;99379.90;232643;1223;138716;-59
2022/05/15 20:59:44;;;;;;;12.60;3.30;;;;;;;17.29;40.61;99382.60;231140;1222;139375;-61
2022/05/15 21:04:48;;;;;;;13.10;3.70;;;;;;;17.20;40.74;99386.90;232486;1223;140535;-60
2022/05/15 21:09:51;;;;;;;8.30;2.90;;;;;;;17.11;40.86;99382.86;232100;1223;139129;-60
2022/05/15 21:14:55;;;;;;;8.70;3.50;;;;;;;17.03;41.20;99384.04;231696;1223;139125;-62
2022/05/15 21:19:58;;;;;;;7.40;3.40;;;;;;;16.94;41.31;99384.08;232490;1222;139074;-61
2022/05/15 21:25:07;;;;;;;4.80;3.50;;;;;;;16.83;41.67;99379.91;232403;1223;140437;-61
2022/05/15 21:30:10;;;;;;;8.40;3.70;;;;;;;16.74;41.79;99378.02;232397;1222;140331;-61
2022/05/15 21:35:13;;;;;;;7.40;3.70;;;;;;;16.65;42.14;99378.71;232665;1222;138924;-61
2022/05/15 21:45:39;;;;;;;10.60;3.90;;;;;;;16.45;43.09;99379.98;232604;1223;139059;-61
2022/05/15 21:50:42;;;;;;;12.30;5.40;;;;;;;16.35;43.37;99376.65;232625;1224;139240;-60
2022/05/15 21:55:44;;;;;;;14.60;5.00;;;;;;;16.24;43.73;99375.56;232589;1223;138803;-60
2022/05/15 22:00:52;;;;;;;10.60;5.40;;;;;;;16.15;44.00;99371.10;232674;1223;139883;-61
2022/05/15 22:05:57;;;;;;;9.00;4.70;;;;;;;16.06;44.40;99372.53;232715;1222;139666;-61
2022/05/15 22:11:01;;;;;;;16.60;5.40;;;;;;;15.97;44.67;99371.68;232641;1223;139585;-61
2022/05/15 22:16:04;;;;;;;16.70;5.30;;;;;;;15.90;44.71;99376.89;232629;1222;139669;-61
2022/05/15 22:21:07;;;;;;;13.10;5.10;;;;;;;15.84;45.30;99385.15;232223;1222;139315;-60
2022/05/15 22:26:11;;;;;;;10.60;5.10;;;;;;;15.76;45.56;99375.63;232637;1222;139745;-62
2022/05/15 22:31:14;;;;;;;9.50;5.20;;;;;;;15.65;45.55;99375.20;232739;1222;139484;-58
2022/05/15 22:36:17;;;;;;;12.80;5.20;;;;;;;15.55;45.41;99377.23;232690;1222;139122;-59
2022/05/15 22:41:20;;;;;;;9.30;5.00;;;;;;;15.40;45.85;99380.02;232862;1222;139446;-59
2022/05/15 22:46:25;;;;;;;13.10;4.90;;;;;;;15.31;45.99;99382.80;232671;1222;139193;-59
2022/05/15 22:51:30;;;;;;;11.60;5.10;;;;;;;15.23;46.25;99384.84;232566;1223;139520;-60
2022/05/15 22:56:33;;;;;;;13.90;5.70;;;;;;;15.14;46.49;99383.02;232727;1223;139383;-58
2022/05/15 23:01:36;;;;;;;17.30;5.30;;;;;;;15.04;46.75;99386.11;232128;1223;139666;-59
2022/05/15 23:12:01;;;;;;;16.00;5.60;;;;;;;14.86;47.01;99383.02;232727;1223;139475;-58
2022/05/15 23:17:04;;;;;;;12.40;5.20;;;;;;;14.78;47.16;99382.16;232673;1223;139753;-58
2022/05/15 23:22:07;;;;;;;12.80;5.00;;;;;;;14.68;47.45;99383.74;232054;1223;138672;-58
2022/05/15 23:27:10;;;;;;;8.60;4.60;;;;;;;14.58;47.37;99391.13;232639;1221;141898;-60
2022/05/15 23:32:15;;;;;;;11.10;4.70;;;;;;;14.45;47.65;99389.70;232724;1223;141335;-60
2022/05/15 23:37:19;;;;;;;9.90;4.60;;;;;;;14.36;47.87;99388.94;231605;1222;141134;-60
2022/05/15 23:42:23;;;;;;;11.10;4.70;;;;;;;14.32;48.14;99386.55;232842;1222;140962;-60
2022/05/15 23:47:26;;;;;;;11.20;4.80;;;;;;;14.29;48.27;99386.02;232885;1222;140058;-60
2022/05/15 23:52:29;;;;;;;9.20;5.20;;;;;;;14.25;48.57;99378.50;232009;1222;139220;-59
2022/05/15 23:57:33;;;;;;;10.30;5.20;;;;;;;14.20;48.55;99378.98;232013;1222;139115;-59
